sensor_id;sensor_type;location;lat;lon;timestamp;pressure;altitude;pressure_sealevel;temperature;humidity
23241;BME280;11789;53.482;9.862;2022-10-22T00:00:54;100994.75;;;13.04;100.00
23241;BME280;11789;53.482;9.862;2022-10-22T00:03:20;100996.50;;;13.04;100.00
23241;BME280;11789;53.482;9.862;2022-10-22T00:05:46;100987.84;;;13.03;100.00
23241;BME280;11789;53.482;9.862;2022-10-22T00:08:12;100996.50;;;13.04;100.00
23241;BME280;11789;53.482;9.862;2022-10-22T00:10:38;100993.88;;;13.05;100.00
23241;BME280;11789;53.482;9.862;2022-10-22T00:13:04;100996.50;;;13.02;100.00
23241;BME280;11789;53.482;9.862;2022-10-22T00:15:30;100993.03;;;13.02;100.00
23241;BME280;11789;53.482;9.862;2022-10-22T00:17:55;100993.03;;;13.02;100.00
23241;BME280;11789;53.482;9.862;2022-10-22T00:20:20;100995.66;;;13.03;100.00
23241;BME280;11789;53.482;9.862;2022-10-22T00:22:47;100999.09;;;13.04;100.00
23241;BME280;11789;53.482;9.862;2022-10-22T00:25:13;101004.28;;;13.02;100.00
23241;BME280;11789;53.482;9.862;2022-10-22T00:27:39;101006.00;;;13.02;100.00
23241;BME280;11789;53.482;9.862;2022-10-22T00:30:05;100994.78;;;13.01;100.00
23241;BME280;11789;53.482;9.862;2022-10-22T00:32:30;101006.03;;;13.03;100.00
23241;BME280;11789;53.482;9.862;2022-10-22T00:34:56;101000.84;;;13.03;100.00
23241;BME280;11789;53.482;9.862;2022-10-22T00:37:21;101002.56;;;13.01;100.00
23241;BME280;11789;53.482;9.862;2022-10-22T00:39:47;101003.44;;;13.00;100.00
23241;BME280;11789;53.482;9.862;2022-10-22T00:42:18;101006.03;;;13.03;100.00
23241;BME280;11789;53.482;9.862;2022-10-22T00:45:12;101011.19;;;13.05;100.00
23241;BME280;11789;53.482;9.862;2022-10-22T00:50:22;101007.75;;;13.04;100.00
23241;BME280;11789;53.482;9.862;2022-10-22T00:52:49;101006.03;;;13.03;100.00
23241;BME280;11789;53.482;9.862;2022-10-22T00:55:16;101009.47;;;13.02;100.00
23241;BME280;11789;53.482;9.862;2022-10-22T00:57:43;101004.28;;;13.04;100.00
23241;BME280;11789;53.482;9.862;2022-10-22T01:00:10;101006.00;;;13.02;100.00
23241;BME280;11789;53.482;9.862;2022-10-22T01:02:36;100996.50;;;13.01;100.00
23241;BME280;11789;53.482;9.862;2022-10-22T01:05:01;101003.44;;;13.00;100.00
23241;BME280;11789;53.482;9.862;2022-10-22T01:07:27;101013.00;;;12.98;100.00
23241;BME280;11789;53.482;9.862;2022-10-22T01:10:10;101013.84;;;12.95;100.00
23241;BME280;11789;53.482;9.862;2022-10-22T01:13:02;101013.00;;;12.95;100.00
23241;BME280;11789;53.482;9.862;2022-10-22T01:15:51;101021.66;;;12.92;100.00
23241;BME280;11789;53.482;9.862;2022-10-22T01:18:28;101018.25;;;12.89;100.00
23241;BME280;11789;53.482;9.862;2022-10-22T01:21:07;101021.69;;;12.89;100.00
23241;BME280;11789;53.482;9.862;2022-10-22T01:24:04;101025.16;;;12.87;100.00
23241;BME280;11789;53.482;9.862;2022-10-22T01:26:48;101024.31;;;12.85;100.00
23241;BME280;11789;53.482;9.862;2022-10-22T01:31:59;101026.94;;;12.80;100.00
23241;BME280;11789;53.482;9.862;2022-10-22T01:34:27;101030.44;;;12.78;100.00
23241;BME280;11789;53.482;9.862;2022-10-22T01:36:54;101026.97;;;12.76;100.00
23241;BME280;11789;53.482;9.862;2022-10-22T01:39:20;101028.75;;;12.73;100.00
23241;BME280;11789;53.482;9.862;2022-10-22T01:41:47;101027.00;;;12.71;100.00
23241;BME280;11789;53.482;9.862;2022-10-22T01:44:30;101030.50;;;12.68;100.00
23241;BME280;11789;53.482;9.862;2022-10-22T01:50:03;101034.00;;;12.63;100.00
23241;BME280;11789;53.482;9.862;2022-10-22T01:55:27;101025.41;;;12.53;100.00
23241;BME280;11789;53.482;9.862;2022-10-22T01:58:05;101033.19;;;12.52;100.00
23241;BME280;11789;53.482;9.862;2022-10-22T02:00:37;101022.00;;;12.48;100.00
23241;BME280;11789;53.482;9.862;2022-10-22T02:03:13;101024.56;;;12.46;100.00
23241;BME280;11789;53.482;9.862;2022-10-22T02:05:51;101027.19;;;12.45;100.00
23241;BME280;11789;53.482;9.862;2022-10-22T02:08:22;101020.28;;;12.41;100.00
23241;BME280;11789;53.482;9.862;2022-10-22T02:10:49;101017.69;;;12.41;100.00
23241;BME280;11789;53.482;9.862;2022-10-22T02:13:24;101012.53;;;12.38;100.00
23241;BME280;11789;53.482;9.862;2022-10-22T02:15:51;101007.34;;;12.38;100.00
23241;BME280;11789;53.482;9.862;2022-10-22T02:18:20;101010.81;;;12.37;100.00
23241;BME280;11789;53.482;9.862;2022-10-22T02:20:48;100997.88;;;12.34;100.00
23241;BME280;11789;53.482;9.862;2022-10-22T02:23:15;100998.72;;;12.31;100.00
23241;BME280;11789;53.482;9.862;2022-10-22T02:25:43;100987.53;;;12.29;100.00
23241;BME280;11789;53.482;9.862;2022-10-22T02:28:39;100984.06;;;12.29;100.00
23241;BME280;11789;53.482;9.862;2022-10-22T02:31:18;100991.88;;;12.23;100.00
23241;BME280;11789;53.482;9.862;2022-10-22T02:33:48;100992.75;;;12.20;100.00
23241;BME280;11789;53.482;9.862;2022-10-22T02:36:16;100997.97;;;12.17;100.00
23241;BME280;11789;53.482;9.862;2022-10-22T02:38:42;100993.63;;;12.16;100.00
23241;BME280;11789;53.482;9.862;2022-10-22T02:41:08;101001.44;;;12.14;100.00
23241;BME280;11789;53.482;9.862;2022-10-22T02:43:39;100993.66;;;12.10;100.00
23241;BME280;11789;53.482;9.862;2022-10-22T02:46:05;100994.56;;;12.07;100.00
23241;BME280;11789;53.482;9.862;2022-10-22T02:48:30;100995.41;;;12.08;100.00
23241;BME280;11789;53.482;9.862;2022-10-22T02:50:55;100989.37;;;12.01;100.00
23241;BME280;11789;53.482;9.862;2022-10-22T02:53:21;100992.84;;;12.00;100.00
23241;BME280;11789;53.482;9.862;2022-10-22T02:55:46;100994.56;;;12.01;100.00
23241;BME280;11789;53.482;9.862;2022-10-22T02:58:12;100995.47;;;11.97;100.00
23241;BME280;11789;53.482;9.862;2022-10-22T03:00:38;100996.34;;;11.98;100.00
23241;BME280;11789;53.482;9.862;2022-10-22T03:03:03;101005.81;;;11.95;100.00
23241;BME280;11789;53.482;9.862;2022-10-22T03:05:29;101003.25;;;11.94;100.00
23241;BME280;11789;53.482;9.862;2022-10-22T03:07:54;100999.78;;;11.93;100.00
23241;BME280;11789;53.482;9.862;2022-10-22T03:10:20;101010.19;;;11.92;100.00
23241;BME280;11789;53.482;9.862;2022-10-22T03:12:45;101011.91;;;11.90;100.00
23241;BME280;11789;53.482;9.862;2022-10-22T03:15:10;101005.88;;;11.85;100.00
23241;BME280;11789;53.482;9.862;2022-10-22T03:17:36;101011.09;;;11.82;100.00
23241;BME280;11789;53.482;9.862;2022-10-22T03:20:02;101013.63;;;11.79;100.00
23241;BME280;11789;53.482;9.862;2022-10-22T03:22:29;101011.94;;;11.76;100.00
23241;BME280;11789;53.482;9.862;2022-10-22T03:24:59;101020.56;;;11.77;100.00
23241;BME280;11789;53.482;9.862;2022-10-22T03:27:27;101024.00;;;11.76;100.00
23241;BME280;11789;53.482;9.862;2022-10-22T03:29:54;101023.16;;;11.74;100.00
23241;BME280;11789;53.482;9.862;2022-10-22T03:32:20;101028.31;;;11.70;100.00
23241;BME280;11789;53.482;9.862;2022-10-22T03:34:46;101030.94;;;11.69;100.00
23241;BME280;11789;53.482;9.862;2022-10-22T03:37:12;101024.03;;;11.68;100.00
23241;BME280;11789;53.482;9.862;2022-10-22T03:39:37;101040.44;;;11.67;100.00
23241;BME280;11789;53.482;9.862;2022-10-22T03:42:04;101038.72;;;11.67;100.00
23241;BME280;11789;53.482;9.862;2022-10-22T03:44:30;101035.25;;;11.67;100.00
23241;BME280;11789;53.482;9.862;2022-10-22T03:46:56;101045.59;;;11.65;100.00
23241;BME280;11789;53.482;9.862;2022-10-22T03:49:21;101052.50;;;11.65;100.00
23241;BME280;11789;53.482;9.862;2022-10-22T03:51:47;101052.50;;;11.65;100.00
23241;BME280;11789;53.482;9.862;2022-10-22T03:54:12;101059.41;;;11.64;100.00
23241;BME280;11789;53.482;9.862;2022-10-22T03:56:37;101062.88;;;11.63;100.00
23241;BME280;11789;53.482;9.862;2022-10-22T03:59:03;101062.03;;;11.61;100.00
23241;BME280;11789;53.482;9.862;2022-10-22T04:01:30;101054.25;;;11.60;100.00
23241;BME280;11789;53.482;9.862;2022-10-22T04:03:57;101062.03;;;11.61;100.00
23241;BME280;11789;53.482;9.862;2022-10-22T04:06:23;101068.06;;;11.62;100.00
23241;BME280;11789;53.482;9.862;2022-10-22T04:08:49;101058.59;;;11.61;100.00
23241;BME280;11789;53.482;9.862;2022-10-22T04:11:15;101056.00;;;11.62;100.00
23241;BME280;11789;53.482;9.862;2022-10-22T04:13:41;101064.63;;;11.61;100.00
23241;BME280;11789;53.482;9.862;2022-10-22T04:16:13;101058.56;;;11.62;100.00
23241;BME280;11789;53.482;9.862;2022-10-22T04:18:39;101062.88;;;11.63;100.00
23241;BME280;11789;53.482;9.862;2022-10-22T04:21:06;101062.88;;;11.65;100.00
23241;BME280;11789;53.482;9.862;2022-10-22T04:23:32;101065.47;;;11.63;100.00
23241;BME280;11789;53.482;9.862;2022-10-22T04:25:59;101055.97;;;11.65;100.00
23241;BME280;11789;53.482;9.862;2022-10-22T04:28:25;101062.88;;;11.66;100.00
23241;BME280;11789;53.482;9.862;2022-10-22T04:30:51;101063.75;;;11.64;100.00
23241;BME280;11789;53.482;9.862;2022-10-22T04:33:17;101062.03;;;11.63;100.00
23241;BME280;11789;53.482;9.862;2022-10-22T04:35:42;101061.19;;;11.61;100.00
23241;BME280;11789;53.482;9.862;2022-10-22T04:38:08;101065.47;;;11.60;100.00
23241;BME280;11789;53.482;9.862;2022-10-22T04:40:33;101066.34;;;11.58;100.00
23241;BME280;11789;53.482;9.862;2022-10-22T04:42:58;101067.22;;;11.57;100.00
23241;BME280;11789;53.482;9.862;2022-10-22T04:45:24;101061.16;;;11.58;100.00
23241;BME280;11789;53.482;9.862;2022-10-22T04:47:49;101068.94;;;11.59;100.00
23241;BME280;11789;53.482;9.862;2022-10-22T04:50:15;101062.91;;;11.57;100.00
23241;BME280;11789;53.482;9.862;2022-10-22T04:52:40;101059.44;;;11.57;100.00
23241;BME280;11789;53.482;9.862;2022-10-22T04:55:06;101066.34;;;11.55;100.00
23241;BME280;11789;53.482;9.862;2022-10-22T04:57:31;101071.53;;;11.53;100.00
23241;BME280;11789;53.482;9.862;2022-10-22T04:59:57;101060.31;;;11.53;100.00
23241;BME280;11789;53.482;9.862;2022-10-22T05:02:22;101067.22;;;11.52;100.00
23241;BME280;11789;53.482;9.862;2022-10-22T05:04:48;101068.94;;;11.53;100.00
23241;BME280;11789;53.482;9.862;2022-10-22T05:07:13;101081.03;;;11.50;100.00
23241;BME280;11789;53.482;9.862;2022-10-22T05:09:39;101069.81;;;11.49;100.00
23241;BME280;11789;53.482;9.862;2022-10-22T05:12:04;101067.22;;;11.51;100.00
23241;BME280;11789;53.482;9.862;2022-10-22T05:14:30;101074.13;;;11.50;100.00
23241;BME280;11789;53.482;9.862;2022-10-22T05:16:56;101072.41;;;11.49;100.00
23241;BME280;11789;53.482;9.862;2022-10-22T05:19:24;101076.72;;;11.49;100.00
23241;BME280;11789;53.482;9.862;2022-10-22T05:21:56;101073.28;;;11.47;100.00
23241;BME280;11789;53.482;9.862;2022-10-22T05:24:22;101087.09;;;11.46;100.00
23241;BME280;11789;53.482;9.862;2022-10-22T05:26:49;101087.94;;;11.46;100.00
23241;BME280;11789;53.482;9.862;2022-10-22T05:29:15;101094.84;;;11.46;100.00
23241;BME280;11789;53.482;9.862;2022-10-22T05:31:40;101087.09;;;11.46;100.00
23241;BME280;11789;53.482;9.862;2022-10-22T05:34:06;101090.53;;;11.46;100.00
23241;BME280;11789;53.482;9.862;2022-10-22T05:36:31;101093.12;;;11.46;100.00
23241;BME280;11789;53.482;9.862;2022-10-22T05:38:56;101090.53;;;11.46;100.00
23241;BME280;11789;53.482;9.862;2022-10-22T05:41:25;101091.41;;;11.47;100.00
23241;BME280;11789;53.482;9.862;2022-10-22T05:43:57;101090.53;;;11.48;100.00
23241;BME280;11789;53.482;9.862;2022-10-22T05:46:25;101088.81;;;11.48;100.00
23241;BME280;11789;53.482;9.862;2022-10-22T05:48:56;101088.81;;;11.51;100.00
23241;BME280;11789;53.482;9.862;2022-10-22T05:51:22;101086.22;;;11.53;100.00
23241;BME280;11789;53.482;9.862;2022-10-22T05:53:53;101081.88;;;11.53;100.00
23241;BME280;11789;53.482;9.862;2022-10-22T05:56:19;101087.91;;;11.55;100.00
23241;BME280;11789;53.482;9.862;2022-10-22T05:58:44;101087.94;;;11.57;100.00
23241;BME280;11789;53.482;9.862;2022-10-22T06:01:23;101087.06;;;11.58;100.00
23241;BME280;11789;53.482;9.862;2022-10-22T06:03:53;101088.78;;;11.59;100.00
23241;BME280;11789;53.482;9.862;2022-10-22T06:06:48;101087.91;;;11.60;100.00
23241;BME280;11789;53.482;9.862;2022-10-22T06:09:18;101089.66;;;11.61;100.00
23241;BME280;11789;53.482;9.862;2022-10-22T06:11:45;101099.16;;;11.62;100.00
23241;BME280;11789;53.482;9.862;2022-10-22T06:14:11;101097.41;;;11.59;100.00
23241;BME280;11789;53.482;9.862;2022-10-22T06:16:37;101099.16;;;11.62;100.00
23241;BME280;11789;53.482;9.862;2022-10-22T06:19:03;101107.78;;;11.62;100.00
23241;BME280;11789;53.482;9.862;2022-10-22T06:21:29;101102.59;;;11.64;100.00
23241;BME280;11789;53.482;9.862;2022-10-22T06:23:57;101104.31;;;11.66;100.00
23241;BME280;11789;53.482;9.862;2022-10-22T06:26:22;101110.38;;;11.67;100.00
23241;BME280;11789;53.482;9.862;2022-10-22T06:28:48;101112.06;;;11.69;100.00
23241;BME280;11789;53.482;9.862;2022-10-22T06:31:13;101093.06;;;11.70;100.00
23241;BME280;11789;53.482;9.862;2022-10-22T06:33:39;101103.44;;;11.70;100.00
23241;BME280;11789;53.482;9.862;2022-10-22T06:36:16;101098.25;;;11.70;100.00
23241;BME280;11789;53.482;9.862;2022-10-22T06:38:42;101106.91;;;11.73;100.00
23241;BME280;11789;53.482;9.862;2022-10-22T06:41:10;101106.88;;;11.76;100.00
23241;BME280;11789;53.482;9.862;2022-10-22T06:43:36;101112.94;;;11.76;100.00
23241;BME280;11789;53.482;9.862;2022-10-22T06:46:03;101122.44;;;11.79;100.00
23241;BME280;11789;53.482;9.862;2022-10-22T06:48:29;101122.44;;;11.79;100.00
23241;BME280;11789;53.482;9.862;2022-10-22T06:50:55;101125.00;;;11.79;100.00
23241;BME280;11789;53.482;9.862;2022-10-22T06:53:20;101126.72;;;11.80;100.00
23241;BME280;11789;53.482;9.862;2022-10-22T06:55:46;101137.09;;;11.78;100.00
23241;BME280;11789;53.482;9.862;2022-10-22T06:58:11;101137.12;;;11.77;100.00
23241;BME280;11789;53.482;9.862;2022-10-22T07:00:37;101144.88;;;11.78;100.00
23241;BME280;11789;53.482;9.862;2022-10-22T07:03:02;101144.88;;;11.78;100.00
23241;BME280;11789;53.482;9.862;2022-10-22T07:05:28;101142.28;;;11.80;100.00
23241;BME280;11789;53.482;9.862;2022-10-22T07:07:53;101145.78;;;11.82;100.00
23241;BME280;11789;53.482;9.862;2022-10-22T07:10:18;101147.50;;;11.84;100.00
23241;BME280;11789;53.482;9.862;2022-10-22T07:12:44;101154.41;;;11.87;100.00
23241;BME280;11789;53.482;9.862;2022-10-22T07:15:09;101152.66;;;11.90;100.00
23241;BME280;11789;53.482;9.862;2022-10-22T07:17:35;101157.84;;;11.93;100.00
23241;BME280;11789;53.482;9.862;2022-10-22T07:20:00;101160.44;;;11.97;100.00
23241;BME280;11789;53.482;9.862;2022-10-22T07:22:26;101158.69;;;12.00;100.00
23241;BME280;11789;53.482;9.862;2022-10-22T07:24:51;101160.41;;;12.04;100.00
23241;BME280;11789;53.482;9.862;2022-10-22T07:27:17;101161.22;;;12.20;100.00
23241;BME280;11789;53.482;9.862;2022-10-22T07:29:42;101169.00;;;12.28;100.00
23241;BME280;11789;53.482;9.862;2022-10-22T07:32:07;101170.69;;;12.38;100.00
23241;BME280;11789;53.482;9.862;2022-10-22T07:34:33;101168.94;;;12.40;100.00
23241;BME280;11789;53.482;9.862;2022-10-22T07:36:58;101171.53;;;12.44;100.00
23241;BME280;11789;53.482;9.862;2022-10-22T07:39:24;101168.06;;;12.50;100.00
23241;BME280;11789;53.482;9.862;2022-10-22T07:41:50;101176.69;;;12.54;100.00
23241;BME280;11789;53.482;9.862;2022-10-22T07:44:16;101182.75;;;12.57;100.00
23241;BME280;11789;53.482;9.862;2022-10-22T07:46:41;101182.69;;;12.66;100.00
23241;BME280;11789;53.482;9.862;2022-10-22T07:49:06;101188.72;;;12.71;100.00
23241;BME280;11789;53.482;9.862;2022-10-22T07:51:32;101189.53;;;12.80;100.00
23241;BME280;11789;53.482;9.862;2022-10-22T07:53:57;101188.66;;;12.82;100.00
23241;BME280;11789;53.482;9.862;2022-10-22T07:56:22;101192.94;;;12.91;100.00
23241;BME280;11789;53.482;9.862;2022-10-22T07:58:48;101192.06;;;12.98;100.00
23241;BME280;11789;53.482;9.862;2022-10-22T08:01:13;101194.66;;;12.98;100.00
23241;BME280;11789;53.482;9.862;2022-10-22T08:03:39;101190.28;;;13.02;100.00
23241;BME280;11789;53.482;9.862;2022-10-22T08:06:04;101198.06;;;13.08;100.00
23241;BME280;11789;53.482;9.862;2022-10-22T08:08:30;101200.59;;;13.15;100.00
23241;BME280;11789;53.482;9.862;2022-10-22T08:10:56;101206.63;;;13.20;100.00
23241;BME280;11789;53.482;9.862;2022-10-22T08:13:23;101205.47;;;13.66;100.00
23241;BME280;11789;53.482;9.862;2022-10-22T08:15:50;101214.66;;;14.03;100.00
23241;BME280;11789;53.482;9.862;2022-10-22T08:18:15;101223.28;;;14.09;100.00
23241;BME280;11789;53.482;9.862;2022-10-22T08:20:41;101215.31;;;14.24;100.00
23241;BME280;11789;53.482;9.862;2022-10-22T08:23:07;101222.22;;;14.31;100.00
23241;BME280;11789;53.482;9.862;2022-10-22T08:25:32;101223.34;;;14.06;100.00
23241;BME280;11789;53.482;9.862;2022-10-22T08:27:58;101224.66;;;14.43;100.00
23241;BME280;11789;53.482;9.862;2022-10-22T08:30:23;101218.94;;;14.91;100.00
23241;BME280;11789;53.482;9.862;2022-10-22T08:32:52;101228.19;;;14.41;100.00
23241;BME280;11789;53.482;9.862;2022-10-22T08:35:17;101238.81;;;14.16;100.00
23241;BME280;11789;53.482;9.862;2022-10-22T08:37:42;101232.66;;;14.26;100.00
23241;BME280;11789;53.482;9.862;2022-10-22T08:40:12;101239.66;;;14.18;100.00
23241;BME280;11789;53.482;9.862;2022-10-22T08:45:47;101233.00;;;13.90;100.00
23241;BME280;11789;53.482;9.862;2022-10-22T08:48:57;101237.41;;;13.80;100.00
23241;BME280;11789;53.482;9.862;2022-10-22T08:51:31;101234.75;;;13.86;100.00
23241;BME280;11789;53.482;9.862;2022-10-22T08:54:13;101239.12;;;13.83;100.00
23241;BME280;11789;53.482;9.862;2022-10-22T08:56:46;101246.06;;;13.81;100.00
23241;BME280;11789;53.482;9.862;2022-10-22T08:59:23;101247.78;;;13.82;100.00
23241;BME280;11789;53.482;9.862;2022-10-22T09:01:52;101246.91;;;13.84;100.00
23241;BME280;11789;53.482;9.862;2022-10-22T09:04:29;101246.87;;;13.90;100.00
23241;BME280;11789;53.482;9.862;2022-10-22T09:06:58;101249.41;;;13.96;100.00
23241;BME280;11789;53.482;9.862;2022-10-22T09:09:39;101250.16;;;14.08;100.00
23241;BME280;11789;53.482;9.862;2022-10-22T09:12:09;101243.19;;;14.13;100.00
23241;BME280;11789;53.482;9.862;2022-10-22T09:14:38;101243.97;;;14.22;100.00
23241;BME280;11789;53.482;9.862;2022-10-22T09:18:13;101241.31;;;14.30;100.00
23241;BME280;11789;53.482;9.862;2022-10-22T09:20:20;101245.59;;;14.33;100.00
23241;BME280;11789;53.482;9.862;2022-10-22T09:25:31;101239.41;;;14.43;100.00
23241;BME280;11789;53.482;9.862;2022-10-22T09:27:59;101247.22;;;14.43;100.00
23241;BME280;11789;53.482;9.862;2022-10-22T09:30:27;101244.63;;;14.43;100.00
23241;BME280;11789;53.482;9.862;2022-10-22T09:33:00;101245.47;;;14.45;100.00
23241;BME280;11789;53.482;9.862;2022-10-22T09:35:26;101244.66;;;14.41;100.00
23241;BME280;11789;53.482;9.862;2022-10-22T09:37:55;101249.88;;;14.38;100.00
23241;BME280;11789;53.482;9.862;2022-10-22T09:40:22;101249.88;;;14.37;100.00
23241;BME280;11789;53.482;9.862;2022-10-22T09:42:48;101247.25;;;14.38;100.00
23241;BME280;11789;53.482;9.862;2022-10-22T09:45:22;101249.88;;;14.37;100.00
23241;BME280;11789;53.482;9.862;2022-10-22T09:47:49;101252.50;;;14.37;100.00
23241;BME280;11789;53.482;9.862;2022-10-22T09:50:24;101254.19;;;14.39;100.00
23241;BME280;11789;53.482;9.862;2022-10-22T09:55:37;101249.81;;;14.43;100.00
23241;BME280;11789;53.482;9.862;2022-10-22T09:58:03;101251.53;;;14.44;100.00
23241;BME280;11789;53.482;9.862;2022-10-22T10:00:29;101251.53;;;14.47;100.00
23241;BME280;11789;53.482;9.862;2022-10-22T10:02:56;101257.59;;;14.44;100.00
23241;BME280;11789;53.482;9.862;2022-10-22T10:05:33;101252.41;;;14.46;100.00
23241;BME280;11789;53.482;9.862;2022-10-22T10:08:25;101257.63;;;14.43;100.00
23241;BME280;11789;53.482;9.862;2022-10-22T10:11:01;101258.47;;;14.46;100.00
23241;BME280;11789;53.482;9.862;2022-10-22T10:13:42;101252.41;;;14.46;100.00
23241;BME280;11789;53.482;9.862;2022-10-22T10:16:22;101256.72;;;14.51;100.00
23241;BME280;11789;53.482;9.862;2022-10-22T10:19:16;101259.25;;;14.56;100.00
23241;BME280;11789;53.482;9.862;2022-10-22T10:22:28;101260.00;;;14.67;100.00
23241;BME280;11789;53.482;9.862;2022-10-22T10:25:14;101259.09;;;14.71;100.00
23241;BME280;11789;53.482;9.862;2022-10-22T10:28:14;101253.91;;;14.68;100.00
23241;BME280;11789;53.482;9.862;2022-10-22T10:31:33;101255.69;;;14.66;100.00
23241;BME280;11789;53.482;9.862;2022-10-22T10:33:46;101258.25;;;14.71;100.00
23241;BME280;11789;53.482;9.862;2022-10-22T10:36:26;101254.69;;;14.75;100.00
23241;BME280;11789;53.482;9.862;2022-10-22T10:39:27;101251.25;;;14.76;100.00
23241;BME280;11789;53.482;9.862;2022-10-22T10:42:06;101254.75;;;14.72;100.00
23241;BME280;11789;53.482;9.862;2022-10-22T10:44:47;101253.91;;;14.68;100.00
23241;BME280;11789;53.482;9.862;2022-10-22T10:47:30;101256.47;;;14.73;100.00
23241;BME280;11789;53.482;9.862;2022-10-22T10:50:16;101262.53;;;14.73;100.00
23241;BME280;11789;53.482;9.862;2022-10-22T10:52:54;101265.22;;;14.67;100.00
23241;BME280;11789;53.482;9.862;2022-10-22T10:55:53;101264.31;;;14.68;100.00
23241;BME280;11789;53.482;9.862;2022-10-22T10:58:22;101262.38;;;14.87;100.00
23241;BME280;11789;53.482;9.862;2022-10-22T11:00:55;101266.50;;;15.03;100.00
23241;BME280;11789;53.482;9.862;2022-10-22T11:05:59;101268.09;;;15.17;100.00
23241;BME280;11789;53.482;9.862;2022-10-22T11:08:27;101273.19;;;15.23;100.00
23241;BME280;11789;53.482;9.862;2022-10-22T11:11:15;101270.66;;;15.18;100.00
23241;BME280;11789;53.482;9.862;2022-10-22T11:13:49;101272.44;;;15.15;100.00
23241;BME280;11789;53.482;9.862;2022-10-22T11:16:27;101267.22;;;15.16;100.00
23241;BME280;11789;53.482;9.862;2022-10-22T11:19:19;101262.88;;;15.17;100.00
23241;BME280;11789;53.482;9.862;2022-10-22T11:21:58;101256.66;;;15.25;100.00
23241;BME280;11789;53.482;9.862;2022-10-22T11:24:40;101261.84;;;15.28;100.00
23241;BME280;11789;53.482;9.862;2022-10-22T11:29:46;101267.03;;;15.28;100.00
23241;BME280;11789;53.482;9.862;2022-10-22T11:32:22;101268.53;;;15.45;100.00
23241;BME280;11789;53.482;9.862;2022-10-22T11:34:55;101269.31;;;15.53;100.00
23241;BME280;11789;53.482;9.862;2022-10-22T11:37:23;101267.56;;;15.53;100.00
23241;BME280;11789;53.482;9.862;2022-10-22T11:39:53;101257.91;;;15.60;100.00
23241;BME280;11789;53.482;9.862;2022-10-22T11:42:29;101268.25;;;15.68;100.00
23241;BME280;11789;53.482;9.862;2022-10-22T11:47:31;101250.03;;;15.66;100.00
23241;BME280;11789;53.482;9.862;2022-10-22T11:50:14;101265.78;;;15.57;100.00
23241;BME280;11789;53.482;9.862;2022-10-22T11:52:51;101258.88;;;15.53;100.00
23241;BME280;11789;53.482;9.862;2022-10-22T11:55:44;101263.09;;;15.63;100.00
23241;BME280;11789;53.482;9.862;2022-10-22T12:00:57;101262.22;;;15.61;100.00
23241;BME280;11789;53.482;9.862;2022-10-22T12:11:38;101269.06;;;15.71;100.00
23241;BME280;11789;53.482;9.862;2022-10-22T12:16:43;101271.66;;;15.73;100.00
23241;BME280;11789;53.482;9.862;2022-10-22T12:21:37;101268.84;;;15.87;100.00
23241;BME280;11789;53.482;9.862;2022-10-22T12:24:03;101272.97;;;15.98;100.00
23241;BME280;11789;53.482;9.862;2022-10-22T12:26:31;101281.66;;;15.99;100.00
23241;BME280;11789;53.482;9.862;2022-10-22T12:29:00;101278.13;;;16.01;100.00
23241;BME280;11789;53.482;9.862;2022-10-22T12:31:27;101270.28;;;16.01;100.00
23241;BME280;11789;53.482;9.862;2022-10-22T12:33:59;101274.66;;;16.01;100.00
23241;BME280;11789;53.482;9.862;2022-10-22T12:36:34;101272.13;;;15.96;100.00
23241;BME280;11789;53.482;9.862;2022-10-22T12:39:02;101271.34;;;15.93;100.00
23241;BME280;11789;53.482;9.862;2022-10-22T12:41:32;101266.12;;;15.93;100.00
23241;BME280;11789;53.482;9.862;2022-10-22T12:43:59;101274.00;;;15.88;100.00
23241;BME280;11789;53.482;9.862;2022-10-22T12:46:26;101274.03;;;15.85;100.00
23241;BME280;11789;53.482;9.862;2022-10-22T12:48:52;101275.84;;;15.83;100.00
23241;BME280;11789;53.482;9.862;2022-10-22T12:51:20;101281.09;;;15.80;100.00
23241;BME280;11789;53.482;9.862;2022-10-22T12:53:48;101277.66;;;15.78;100.00
23241;BME280;11789;53.482;9.862;2022-10-22T12:56:30;101286.38;;;15.77;100.00
23241;BME280;11789;53.482;9.862;2022-10-22T12:59:01;101282.00;;;15.77;100.00
23241;BME280;11789;53.482;9.862;2022-10-22T13:01:32;101285.44;;;15.79;100.00
23241;BME280;11789;53.482;9.862;2022-10-22T13:04:19;101277.59;;;15.81;100.00
23241;BME280;11789;53.482;9.862;2022-10-22T13:09:42;101286.25;;;15.83;100.00
23241;BME280;11789;53.482;9.862;2022-10-22T13:12:09;101278.47;;;15.80;100.00
23241;BME280;11789;53.482;9.862;2022-10-22T13:14:42;101275.91;;;15.78;100.00
23241;BME280;11789;53.482;9.862;2022-10-22T13:17:38;101280.31;;;15.73;100.00
23241;BME280;11789;53.482;9.862;2022-10-22T13:20:18;101285.56;;;15.70;100.00
23241;BME280;11789;53.482;9.862;2022-10-22T13:22:58;101288.16;;;15.73;100.00
23241;BME280;11789;53.482;9.862;2022-10-22T13:25:26;101281.16;;;15.75;100.00
23241;BME280;11789;53.482;9.862;2022-10-22T13:27:55;101282.00;;;15.77;100.00
23241;BME280;11789;53.482;9.862;2022-10-22T13:30:30;101273.25;;;15.80;100.00
23241;BME280;11789;53.482;9.862;2022-10-22T13:32:59;101275.84;;;15.83;100.00
23241;BME280;11789;53.482;9.862;2022-10-22T13:35:31;101271.50;;;15.82;100.00
23241;BME280;11789;53.482;9.862;2022-10-22T13:37:58;101265.44;;;15.81;100.00
23241;BME280;11789;53.482;9.862;2022-10-22T13:40:23;101277.59;;;15.82;100.00
23241;BME280;11789;53.482;9.862;2022-10-22T13:42:49;101272.38;;;15.82;100.00